createdAt,value
2022-12-29T00:01:58.610Z,77.55
2022-12-29T00:05:02.227Z,77.83
2022-12-29T00:08:06.324Z,78.24
2022-12-29T00:11:13.369Z,78.18
2022-12-29T00:14:34.506Z,77.76
2022-12-29T00:17:38.240Z,77.80
2022-12-29T00:20:59.114Z,77.00
2022-12-29T00:24:34.772Z,76.04
2022-12-29T00:27:59.233Z,76.26
2022-12-29T00:31:42.022Z,76.10
2022-12-29T00:35:03.149Z,76.95
2022-12-29T00:38:27.615Z,76.75
2022-12-29T00:41:49.256Z,76.74
2022-12-29T00:44:54.350Z,75.62
2022-12-29T00:47:57.832Z,76.17
2022-12-29T00:51:00.372Z,76.12
2022-12-29T00:54:03.970Z,76.48
2022-12-29T00:57:09.734Z,75.65
2022-12-29T01:00:16.169Z,75.95
2022-12-29T01:03:20.629Z,75.21
2022-12-29T01:06:25.085Z,74.83
2022-12-29T01:09:46.023Z,75.18
2022-12-29T01:12:50.993Z,76.90
2022-12-29T01:15:56.838Z,77.80
2022-12-29T01:19:00.878Z,77.09
2022-12-29T01:22:04.976Z,77.09
2022-12-29T01:25:09.668Z,76.44
2022-12-29T01:28:16.508Z,75.58
2022-12-29T01:31:24.845Z,75.02
2022-12-29T01:34:30.514Z,75.72
2022-12-29T01:37:34.020Z,74.21
2022-12-29T01:40:46.037Z,75.51
2022-12-29T01:43:51.839Z,74.69
2022-12-29T01:46:59.226Z,74.40
2022-12-29T01:50:09.456Z,75.75
2022-12-29T01:53:18.419Z,76.15
2022-12-29T01:56:23.650Z,75.63
2022-12-29T01:59:32.414Z,76.43
2022-12-29T02:02:37.906Z,75.04
2022-12-29T02:05:47.185Z,74.77
2022-12-29T02:08:53.578Z,74.25
2022-12-29T02:12:00.817Z,73.57
2022-12-29T02:15:05.995Z,73.72
2022-12-29T02:18:24.653Z,73.79
2022-12-29T02:21:45.920Z,74.85
2022-12-29T02:25:12.589Z,74.22
2022-12-29T02:28:46.047Z,75.04
2022-12-29T02:31:56.783Z,74.63
2022-12-29T02:35:09.396Z,74.69
2022-12-29T02:38:23.620Z,73.97
2022-12-29T02:41:34.271Z,73.70
2022-12-29T02:44:49.442Z,73.42
2022-12-29T02:47:59.229Z,73.12
2022-12-29T02:51:05.884Z,73.65
2022-12-29T02:54:27.144Z,73.86
2022-12-29T02:57:33.193Z,73.78
2022-12-29T03:00:48.584Z,74.36
2022-12-29T03:04:13.290Z,73.50
2022-12-29T03:07:25.460Z,73.87
2022-12-29T03:10:37.879Z,75.29
2022-12-29T03:14:04.984Z,75.98
2022-12-29T03:17:17.502Z,76.46
2022-12-29T03:20:27.760Z,75.44
2022-12-29T03:23:35.245Z,74.42
2022-12-29T03:26:39.735Z,73.83
2022-12-29T03:29:48.420Z,74.30
2022-12-29T03:32:54.941Z,74.22
2022-12-29T03:36:07.195Z,73.79
2022-12-29T03:39:13.404Z,74.17
2022-12-29T03:42:22.360Z,75.38
2022-12-29T03:45:26.246Z,77.12
2022-12-29T03:48:30.039Z,76.52
2022-12-29T03:51:35.523Z,76.20
2022-12-29T03:54:42.200Z,76.23
2022-12-29T03:57:46.065Z,76.33
2022-12-29T04:00:54.712Z,76.85
2022-12-29T04:03:58.546Z,78.55
2022-12-29T04:07:04.421Z,79.53
2022-12-29T04:10:09.377Z,79.00
2022-12-29T04:13:13.606Z,80.50
2022-12-29T04:16:18.130Z,80.39
2022-12-29T04:19:22.290Z,80.25
2022-12-29T04:22:28.589Z,80.21
2022-12-29T04:25:33.751Z,78.99
2022-12-29T04:28:39.238Z,77.10
2022-12-29T04:31:54.201Z,78.21
2022-12-29T04:34:58.028Z,77.10
2022-12-29T04:38:03.463Z,77.53
2022-12-29T04:41:07.514Z,79.91
2022-12-29T04:44:13.254Z,80.23
2022-12-29T04:47:40.241Z,78.85
2022-12-29T04:51:18.737Z,77.78
2022-12-29T04:54:24.326Z,77.62
2022-12-29T04:57:36.332Z,77.26
2022-12-29T05:00:39.902Z,76.86
2022-12-29T05:03:43.856Z,76.95
2022-12-29T05:06:48.062Z,77.20
2022-12-29T05:09:53.224Z,76.25
2022-12-29T05:12:56.751Z,76.30
2022-12-29T05:16:00.550Z,76.65
2022-12-29T05:19:05.095Z,76.46
2022-12-29T05:22:09.912Z,75.74
2022-12-29T05:25:16.690Z,75.93
2022-12-29T05:28:31.416Z,75.90
2022-12-29T05:31:40.952Z,75.87
2022-12-29T05:34:44.690Z,77.13
2022-12-29T05:37:48.437Z,76.76
2022-12-29T05:40:53.737Z,76.88
2022-12-29T05:44:17.772Z,76.89
2022-12-29T05:47:21.956Z,77.40
2022-12-29T05:50:49.142Z,77.06
2022-12-29T05:53:55.075Z,76.76
2022-12-29T05:57:01.226Z,77.20
2022-12-29T06:00:06.525Z,77.57
2022-12-29T06:03:18.060Z,78.09
2022-12-29T06:06:22.014Z,78.15
2022-12-29T06:09:26.433Z,78.93
2022-12-29T06:12:32.617Z,77.98
2022-12-29T06:15:37.425Z,78.42
2022-12-29T06:18:45.520Z,77.99
2022-12-29T06:21:50.164Z,77.94
2022-12-29T06:24:54.062Z,78.46
2022-12-29T06:27:59.474Z,77.32
2022-12-29T06:31:04.061Z,76.92
2022-12-29T06:34:08.647Z,75.84
2022-12-29T06:37:14.363Z,76.05
2022-12-29T06:40:18.191Z,75.38
2022-12-29T06:43:52.480Z,73.39
2022-12-29T06:47:26.895Z,73.09
2022-12-29T06:50:30.650Z,73.03
2022-12-29T06:53:34.413Z,73.97
2022-12-29T06:56:38.322Z,73.01
2022-12-29T06:59:43.492Z,73.36
2022-12-29T07:02:47.685Z,72.18
2022-12-29T07:05:51.534Z,71.53
2022-12-29T07:08:56.426Z,70.64
2022-12-29T07:12:01.217Z,69.74
2022-12-29T07:15:07.091Z,70.19
2022-12-29T07:18:10.940Z,71.20
2022-12-29T07:21:14.748Z,70.58
2022-12-29T07:24:18.464Z,71.51
2022-12-29T07:27:22.361Z,69.31
2022-12-29T07:30:27.682Z,67.68
2022-12-29T07:33:31.787Z,69.22
2022-12-29T07:36:35.555Z,67.21
2022-12-29T07:39:39.599Z,67.96
2022-12-29T07:42:43.508Z,66.29
2022-12-29T07:45:48.882Z,65.78
2022-12-29T07:48:54.626Z,66.31
2022-12-29T07:51:58.428Z,65.12
2022-12-29T07:55:02.241Z,65.72
2022-12-29T07:58:06.087Z,63.66
2022-12-29T08:01:11.402Z,63.98
2022-12-29T08:04:15.231Z,64.15
2022-12-29T08:07:19.050Z,64.31
2022-12-29T08:10:22.793Z,63.75
2022-12-29T08:13:27.821Z,63.78
2022-12-29T08:16:33.710Z,63.10
2022-12-29T08:19:37.443Z,62.11
2022-12-29T08:22:41.146Z,61.99
2022-12-29T08:25:44.842Z,62.62
2022-12-29T08:28:48.724Z,62.46
2022-12-29T08:31:53.818Z,62.99
2022-12-29T08:34:57.961Z,62.10
2022-12-29T08:38:01.778Z,61.67
2022-12-29T08:41:05.835Z,61.83
2022-12-29T08:44:09.602Z,59.96
2022-12-29T08:47:14.890Z,60.26
2022-12-29T08:50:18.899Z,60.16
2022-12-29T08:53:22.743Z,59.31
2022-12-29T08:56:26.716Z,58.81
2022-12-29T08:59:33.512Z,59.00
2022-12-29T09:02:38.960Z,58.99
2022-12-29T09:05:42.857Z,58.56
2022-12-29T09:08:46.891Z,57.30
2022-12-29T09:11:50.601Z,56.84
2022-12-29T09:14:54.358Z,56.19
2022-12-29T09:17:59.611Z,56.58
2022-12-29T09:21:07.841Z,56.45
2022-12-29T09:24:11.501Z,56.85
2022-12-29T09:27:15.330Z,56.03
2022-12-29T09:30:19.211Z,55.92
2022-12-29T09:33:24.506Z,55.58
2022-12-29T09:36:28.300Z,54.67
2022-12-29T09:39:32.092Z,54.63
2022-12-29T09:42:41.525Z,54.82
2022-12-29T09:45:48.114Z,54.64
2022-12-29T09:49:00.251Z,53.63
2022-12-29T09:52:08.971Z,52.91
2022-12-29T09:55:17.071Z,51.85
2022-12-29T09:58:27.615Z,52.37
2022-12-29T10:01:35.336Z,51.85
2022-12-29T10:04:47.054Z,52.40
2022-12-29T10:07:59.883Z,52.18
2022-12-29T10:11:14.671Z,51.90
2022-12-29T10:14:35.571Z,51.71
2022-12-29T10:17:47.231Z,51.68
2022-12-29T10:20:57.512Z,51.49
2022-12-29T10:24:03.778Z,50.77
2022-12-29T10:27:13.230Z,51.18
2022-12-29T10:30:18.490Z,51.55
2022-12-29T10:33:26.654Z,51.89
2022-12-29T10:36:37.235Z,51.39
2022-12-29T10:39:47.780Z,51.07
2022-12-29T10:42:55.847Z,51.11
2022-12-29T10:46:04.794Z,51.27
2022-12-29T10:49:21.656Z,51.22
2022-12-29T10:52:29.309Z,50.40
2022-12-29T10:55:37.648Z,50.01
2022-12-29T10:58:49.320Z,50.24
2022-12-29T11:02:02.977Z,50.09
2022-12-29T11:05:17.402Z,51.16
2022-12-29T11:08:25.808Z,52.86
2022-12-29T11:11:36.155Z,51.74
2022-12-29T11:14:41.931Z,51.59
2022-12-29T11:17:47.347Z,51.33
2022-12-29T11:20:51.687Z,51.51
2022-12-29T11:24:00.651Z,52.33
2022-12-29T11:27:16.970Z,52.02
2022-12-29T11:30:26.813Z,52.57
2022-12-29T11:33:30.857Z,53.03
2022-12-29T11:36:37.440Z,53.33
2022-12-29T11:39:47.967Z,52.75
2022-12-29T11:42:55.001Z,52.05
2022-12-29T11:45:59.031Z,53.05
2022-12-29T11:49:05.391Z,51.60
2022-12-29T11:52:10.618Z,51.12
2022-12-29T11:55:24.316Z,50.02
2022-12-29T11:58:33.779Z,50.37
2022-12-29T12:01:41.457Z,50.31
2022-12-29T12:04:45.424Z,51.22
2022-12-29T12:07:52.213Z,51.85
2022-12-29T12:11:06.691Z,53.34
2022-12-29T12:14:22.499Z,53.07
2022-12-29T12:17:55.323Z,53.36
2022-12-29T12:21:06.804Z,52.46
2022-12-29T12:24:37.360Z,51.93
2022-12-29T12:27:51.271Z,52.23
2022-12-29T12:31:00.575Z,52.51
2022-12-29T12:34:09.358Z,51.93
2022-12-29T12:37:37.897Z,52.02
2022-12-29T12:41:02.066Z,51.63
2022-12-29T12:44:20.997Z,51.44
2022-12-29T12:47:47.660Z,52.25
2022-12-29T12:50:57.743Z,52.00
2022-12-29T12:54:14.626Z,52.25
2022-12-29T12:57:27.868Z,52.42
2022-12-29T13:00:40.522Z,52.68
2022-12-29T13:03:57.485Z,53.78
2022-12-29T13:07:11.804Z,53.83
2022-12-29T13:10:25.889Z,53.98
2022-12-29T13:13:47.801Z,53.80
2022-12-29T13:17:04.240Z,54.27
2022-12-29T13:20:22.423Z,54.36
2022-12-29T13:23:33.318Z,54.44
2022-12-29T13:26:44.256Z,54.39
2022-12-29T13:29:58.885Z,54.53
2022-12-29T13:33:21.074Z,55.25
2022-12-29T13:36:32.099Z,55.49
2022-12-29T13:39:39.771Z,55.80
2022-12-29T13:42:44.668Z,55.56
2022-12-29T13:45:52.656Z,55.69
2022-12-29T13:49:04.023Z,55.76
2022-12-29T13:52:17.867Z,55.85
2022-12-29T13:55:29.154Z,55.80
2022-12-29T13:58:37.581Z,56.32
2022-12-29T14:01:48.359Z,56.90
2022-12-29T14:05:02.463Z,58.11
2022-12-29T14:08:17.410Z,58.88
2022-12-29T14:11:25.958Z,59.22
2022-12-29T14:14:33.098Z,59.50
2022-12-29T14:17:37.479Z,59.51
2022-12-29T14:20:52.303Z,60.27
2022-12-29T14:23:56.308Z,60.14
2022-12-29T14:26:59.992Z,60.18
2022-12-29T14:30:03.786Z,60.07
2022-12-29T14:33:16.000Z,60.96
2022-12-29T14:36:29.241Z,60.38
2022-12-29T14:39:39.858Z,60.74
2022-12-29T14:42:44.642Z,61.18
2022-12-29T14:45:56.927Z,61.46
2022-12-29T14:49:02.395Z,61.51
2022-12-29T14:52:18.324Z,61.63
2022-12-29T14:55:39.822Z,61.63
2022-12-29T14:58:50.277Z,62.03
2022-12-29T15:01:56.756Z,62.16
2022-12-29T15:05:03.522Z,62.37
2022-12-29T15:08:10.099Z,62.92
2022-12-29T15:11:16.910Z,62.78
2022-12-29T15:14:32.673Z,62.65
2022-12-29T15:17:38.183Z,62.79
2022-12-29T15:20:41.889Z,63.55
2022-12-29T15:23:49.247Z,63.33
2022-12-29T15:26:55.941Z,63.79
2022-12-29T15:30:03.100Z,64.11
2022-12-29T15:33:20.948Z,64.31
2022-12-29T15:36:26.283Z,64.39
2022-12-29T15:39:33.542Z,64.56
2022-12-29T15:42:55.300Z,65.22
2022-12-29T15:45:59.257Z,65.49
2022-12-29T15:49:08.487Z,66.35
2022-12-29T15:52:13.059Z,65.94
2022-12-29T15:55:27.463Z,65.54
2022-12-29T15:58:33.010Z,65.99
2022-12-29T16:01:38.596Z,66.07
2022-12-29T16:05:09.017Z,66.19
2022-12-29T16:08:26.859Z,65.97
2022-12-29T16:11:36.729Z,66.24
2022-12-29T16:14:45.631Z,66.41
2022-12-29T16:17:51.971Z,66.45
2022-12-29T16:20:56.884Z,66.46
2022-12-29T16:24:04.353Z,67.25
2022-12-29T16:27:15.758Z,66.95
2022-12-29T16:30:27.945Z,66.96
2022-12-29T16:33:42.530Z,67.24
2022-12-29T16:36:56.489Z,67.84
2022-12-29T16:40:29.311Z,67.11
2022-12-29T16:43:35.987Z,67.01
2022-12-29T16:46:46.700Z,67.44
2022-12-29T16:49:54.868Z,66.90
2022-12-29T16:52:58.689Z,67.52
2022-12-29T16:56:06.470Z,67.74
2022-12-29T16:59:30.366Z,67.71
2022-12-29T17:02:46.348Z,68.93
2022-12-29T17:05:55.521Z,69.30
2022-12-29T17:09:01.216Z,68.65
2022-12-29T17:12:11.194Z,69.99
2022-12-29T17:15:25.018Z,70.73
2022-12-29T17:18:29.338Z,70.74
2022-12-29T17:21:33.146Z,70.85
2022-12-29T17:24:37.454Z,70.64
2022-12-29T17:27:45.703Z,70.94
2022-12-29T17:30:51.671Z,71.04
2022-12-29T17:33:57.061Z,70.84
2022-12-29T17:37:00.882Z,70.71
2022-12-29T17:40:06.586Z,71.21
2022-12-29T17:43:15.143Z,71.14
2022-12-29T17:46:20.707Z,70.47
2022-12-29T17:49:24.451Z,70.42
2022-12-29T17:52:28.378Z,70.29
2022-12-29T17:55:37.721Z,70.31
2022-12-29T17:58:43.883Z,70.21
2022-12-29T18:01:50.471Z,70.69
2022-12-29T18:04:55.061Z,71.47
2022-12-29T18:08:00.700Z,70.64
2022-12-29T18:11:05.303Z,70.76
2022-12-29T18:14:13.988Z,70.93
2022-12-29T18:17:19.185Z,70.83
2022-12-29T18:20:22.972Z,70.18
2022-12-29T18:23:28.131Z,70.54
2022-12-29T18:26:35.909Z,71.15
2022-12-29T18:29:40.732Z,70.69
2022-12-29T18:32:46.188Z,70.78
2022-12-29T18:35:54.715Z,70.21
2022-12-29T18:38:58.510Z,70.35
2022-12-29T18:42:02.402Z,70.71
2022-12-29T18:45:17.618Z,70.61
2022-12-29T18:48:23.105Z,72.35
2022-12-29T18:51:27.720Z,71.91
2022-12-29T18:54:33.253Z,71.25
2022-12-29T18:57:37.448Z,71.74
2022-12-29T19:00:41.804Z,70.65
2022-12-29T19:03:47.111Z,69.97
2022-12-29T19:06:51.559Z,69.91
2022-12-29T19:09:55.305Z,69.37
2022-12-29T19:12:59.052Z,69.62
2022-12-29T19:16:02.985Z,69.52
2022-12-29T19:19:09.633Z,69.61
2022-12-29T19:22:13.864Z,69.62
2022-12-29T19:25:17.636Z,70.81
2022-12-29T19:28:23.499Z,70.82
2022-12-29T19:31:27.404Z,71.13
2022-12-29T19:34:32.734Z,71.09
2022-12-29T19:37:40.234Z,71.18
2022-12-29T19:40:45.024Z,71.49
2022-12-29T19:43:48.787Z,71.81
2022-12-29T19:46:52.786Z,72.02
2022-12-29T19:49:58.133Z,71.16
2022-12-29T19:53:05.326Z,71.53
2022-12-29T19:56:10.619Z,72.87
2022-12-29T19:59:14.555Z,72.57
2022-12-29T20:02:21.442Z,72.78
2022-12-29T20:05:26.759Z,71.72
2022-12-29T20:08:30.576Z,71.82
2022-12-29T20:11:34.279Z,70.93
2022-12-29T20:14:38.357Z,71.71
2022-12-29T20:18:13.858Z,70.99
2022-12-29T20:21:09.930Z,70.86
2022-12-29T20:24:13.749Z,70.72
2022-12-29T20:27:17.576Z,70.41
2022-12-29T20:30:21.625Z,71.90
2022-12-29T20:33:25.425Z,70.42
2022-12-29T20:36:33.673Z,70.78
2022-12-29T20:39:38.180Z,70.70
2022-12-29T20:42:42.005Z,70.87
2022-12-29T20:45:46.249Z,70.36
2022-12-29T20:48:50.175Z,70.43
2022-12-29T20:52:10.920Z,70.63
2022-12-29T20:55:14.645Z,70.69
2022-12-29T20:58:26.001Z,70.48
2022-12-29T21:01:30.301Z,70.77
2022-12-29T21:04:57.672Z,71.79
2022-12-29T21:08:00.273Z,72.79
2022-12-29T21:11:04.144Z,74.35
2022-12-29T21:14:07.900Z,72.95
2022-12-29T21:17:11.691Z,72.12
2022-12-29T21:20:20.432Z,72.38
2022-12-29T21:23:25.879Z,71.95
2022-12-29T21:26:29.627Z,71.43
2022-12-29T21:29:33.498Z,71.15
2022-12-29T21:32:37.374Z,70.94
2022-12-29T21:35:41.187Z,71.43
2022-12-29T21:38:46.481Z,71.32
2022-12-29T21:41:50.190Z,71.33
2022-12-29T21:45:16.635Z,71.52
2022-12-29T21:48:25.232Z,73.48
2022-12-29T21:51:46.389Z,72.24
2022-12-29T21:55:05.289Z,71.77
2022-12-29T21:58:27.550Z,71.73
2022-12-29T22:01:51.407Z,71.28
2022-12-29T22:05:12.611Z,72.07
2022-12-29T22:08:33.648Z,71.46
2022-12-29T22:11:56.026Z,71.31
2022-12-29T22:14:59.794Z,72.05
2022-12-29T22:18:04.266Z,72.04
2022-12-29T22:21:09.335Z,72.44
2022-12-29T22:24:13.079Z,72.04
2022-12-29T22:27:18.159Z,72.46
2022-12-29T22:30:22.354Z,72.07
2022-12-29T22:33:26.097Z,72.26
2022-12-29T22:36:30.660Z,71.95
2022-12-29T22:39:34.376Z,73.05
2022-12-29T22:42:40.144Z,72.75
2022-12-29T22:45:43.860Z,72.09
2022-12-29T22:48:47.685Z,72.59
2022-12-29T22:51:52.157Z,72.23
2022-12-29T22:54:57.384Z,72.16
2022-12-29T22:58:05.462Z,71.86
2022-12-29T23:01:09.368Z,71.77
2022-12-29T23:04:59.176Z,71.59
2022-12-29T23:07:37.392Z,72.08
2022-12-29T23:10:41.157Z,71.76
2022-12-29T23:13:47.028Z,71.72
2022-12-29T23:16:50.950Z,72.57
2022-12-29T23:19:55.346Z,72.81
2022-12-29T23:22:59.065Z,72.23
2022-12-29T23:26:02.769Z,72.51
2022-12-29T23:29:09.945Z,72.93
2022-12-29T23:32:13.688Z,72.73
2022-12-29T23:35:17.631Z,72.92
2022-12-29T23:38:21.367Z,72.69
2022-12-29T23:41:25.233Z,73.07
2022-12-29T23:44:30.309Z,73.02
2022-12-29T23:47:33.998Z,72.52
2022-12-29T23:50:41.569Z,72.40
2022-12-29T23:53:46.615Z,72.22
2022-12-29T23:56:50.520Z,72.36
2022-12-29T23:59:55.591Z,72.68
